AirNav   Pilot Hours Calculator
 
 1064 users online  

70VA Burnt Chimney Airport
Burnt Chimney, Virginia, USA

GOING TO BURNT CHIMNEY?


FAA INFORMATION EFFECTIVE 02 JANUARY 2020

Location

FAA Identifier: 70VA
Lat/Long: 37-04-31.5060N 079-49-38.1180W
37-04.525100N 079-49.635300W
37.0754183,-79.8272550
(estimated)
Elevation: 1034 ft. / 315 m (estimated)
Variation: 06W (1985)
From city: 2 miles S of BURNT CHIMNEY, VA
Time zone: UTC -5 (UTC -4 during Daylight Saving Time)
Zip code: 24151

Airport Operations

Airport use: Private use. Permission required prior to landing
Activation date: 08/1987
Control tower: no
ARTCC: WASHINGTON CENTER
FSS: LEESBURG FLIGHT SERVICE STATION
Attendance: UNATNDD
Wind indicator: yes
Segmented circle: no
Lights: FOR LIRL RY 06/24 CALL 540-263-0083.

Airport Communications

WX ASOS at ROA (17 nm NW): PHONE 540-265-0680

Nearby radio navigation aids

VOR radial/distance  VOR name  Freq  Var
ODRr162/(16.6)WOODRUM VOR114.9008W
ROAr148/19.8ROANOKE VOR/DME109.4004W
LYHr254/30.2LYNCHBURG VOR/DME109.2005W
DANr328/(38.5)DANVILLE VOR113.1006W

 
NDB name  Hdg/Dist  Freq  Var  ID
VINTON169/8.127708WVIT ...- .. -
TECH112/28.736806WTEC - . -.-.

Airport Services

Fuel available: MOGAS

Runway Information

Runway 6/24

Dimensions: 1800 x 50 ft. / 549 x 15 m
Surface: turf
Runway edge lights: low intensity
RUNWAY 6  RUNWAY 24
Traffic pattern: leftleft
Obstructions: none30 ft. pline

Airport Ownership and Management from official FAA records

Ownership: Privately-owned
Owner: MARLIN J. BOWMAN
6442 1/2 BEAMSVILLE-WEBSTER RD
VERSAILLES, OH 45380
Phone 540-263-0083
Manager: MARLIN J. BOWMAN
6442 1/2 BEAMSVILLE-WEBSTER RD
VERSAILLES, OH 45380
Phone 540-263-0083

Airport Operational Statistics

Aircraft based on the field: 2
Single engine airplanes: 2
    

Instrument Procedures

There are no published instrument procedures at 70VA.

Some nearby airports with instrument procedures:

W91 - Smith Mountain Lake Airport (11 nm E)
KROA - Roanoke-Blacksburg Regional Airport/Woodrum Field (17 nm NW)
W90 - New London Airport (26 nm NE)
KMTV - Blue Ridge Airport (28 nm S)
KBCB - Virginia Tech/Montgomery Executive Airport (29 nm W)
 
Loc | Ops | Rwys | IFR | FBO | Links
Com | Nav | Svcs | Stats | Notes
Area around 70VA (Burnt Chimney Airport)
 
Road maps at: MapQuest Bing Google
 
Aerial photo
No photo
 
Sectional chart

 
Airport distance calculator
Flying to Burnt Chimney Airport? Find the distance to fly.

From to 70VA

Sunrise and sunset
Times for 23-Jan-2020
 Local
(UTC-5)
 Zulu
(UTC)
Morning civil twilight07:0112:01
Sunrise07:2912:29
Sunset17:3322:33
Evening civil twilight18:0123:01

Current date and time
Zulu (UTC)  24-Jan-2020 02:24:53
Local (UTC-5)  23-Jan-2020 21:24:53
 
METAR
KROA 
16nm NW 
240154Z 00000KT 10SM OVC150 03/M09 A3031 RMK AO2 SLP272 T00331089
KMTV 
29nm S 
240155Z AUTO 00000KT 10SM SCT018 00/M06 A3031 RMK AO2 T10051058
KBCB 
29nm W 
240155Z AUTO 00000KT 10SM SCT120 02/M08 A3027 RMK AO2 T00151080
TAF
KROA 
16nm NW 
231736Z 2318/2418 VRB02KT P6SM BKN200 FM241000 06006KT 3SM RA OVC012 TEMPO 2411/2414 3SM -RAPL FM241500 08006KT 2SM RA OVC008 WS020/13035KT
NOTAMs
Click for the latest NOTAMs
NOTAMs are issued by the DoD/FAA and will open in a separate window not controlled by AirNav.

 

 
 

Would you like to see your business listed on this page?

 If your business provides an interesting product or service to pilots, flight crews, aircraft, or users of the Burnt Chimney Airport, you should consider listing it here.  To start the listing process, click on the button below
 
Add a business
 

Other Pages about Burnt Chimney Airport

Update a link
 
Copyright © AirNav, LLC. All rights reserved. Privacy Policy  Contact